sensor_id;sensor_type;location;lat;lon;timestamp;P1;durP1;ratioP1;P2;durP2;ratioP2
59416;SDS011;45222;52.458;20.914;2023-04-23T18:11:41;13.40;;;6.30;;
59416;SDS011;45222;52.458;20.914;2023-04-23T18:15:29;65.60;;;8.20;;
59416;SDS011;45222;52.458;20.914;2023-04-23T18:19:17;11.20;;;6.40;;
59416;SDS011;45222;52.458;20.914;2023-04-23T18:23:05;12.40;;;5.90;;
59416;SDS011;45222;52.458;20.914;2023-04-23T18:26:54;11.10;;;6.30;;
59416;SDS011;45222;52.458;20.914;2023-04-23T18:30:42;12.70;;;7.40;;
59416;SDS011;45222;52.458;20.914;2023-04-23T18:34:30;10.50;;;6.60;;
59416;SDS011;45222;52.458;20.914;2023-04-23T18:38:23;12.40;;;7.50;;
59416;SDS011;45222;52.458;20.914;2023-04-23T18:42:15;13.60;;;8.20;;
59416;SDS011;45222;52.458;20.914;2023-04-23T18:46:03;14.70;;;8.00;;
59416;SDS011;45222;52.458;20.914;2023-04-23T18:49:52;16.20;;;8.40;;
59416;SDS011;45222;52.458;20.914;2023-04-23T18:53:45;13.10;;;8.00;;
59416;SDS011;45222;52.458;20.914;2023-04-23T18:57:34;13.40;;;7.50;;
59416;SDS011;45222;52.458;20.914;2023-04-23T19:01:22;14.50;;;7.60;;
59416;SDS011;45222;52.458;20.914;2023-04-23T19:05:11;13.70;;;7.50;;
59416;SDS011;45222;52.458;20.914;2023-04-23T19:09:00;14.30;;;8.10;;
59416;SDS011;45222;52.458;20.914;2023-04-23T19:12:48;13.50;;;7.60;;
59416;SDS011;45222;52.458;20.914;2023-04-23T19:16:36;14.40;;;8.70;;
59416;SDS011;45222;52.458;20.914;2023-04-23T19:20:25;16.40;;;8.20;;
59416;SDS011;45222;52.458;20.914;2023-04-23T19:24:14;14.30;;;8.20;;
59416;SDS011;45222;52.458;20.914;2023-04-23T19:28:04;13.50;;;8.50;;
59416;SDS011;45222;52.458;20.914;2023-04-23T19:31:52;14.80;;;8.80;;
59416;SDS011;45222;52.458;20.914;2023-04-23T19:35:39;12.40;;;8.70;;
59416;SDS011;45222;52.458;20.914;2023-04-23T19:39:27;16.70;;;9.20;;
59416;SDS011;45222;52.458;20.914;2023-04-23T19:43:15;14.20;;;9.00;;
59416;SDS011;45222;52.458;20.914;2023-04-23T19:47:03;14.50;;;8.70;;
59416;SDS011;45222;52.458;20.914;2023-04-23T19:50:51;12.90;;;8.80;;
59416;SDS011;45222;52.458;20.914;2023-04-23T19:54:39;15.30;;;8.70;;
59416;SDS011;45222;52.458;20.914;2023-04-23T19:58:32;13.30;;;8.20;;
59416;SDS011;45222;52.458;20.914;2023-04-23T20:02:20;12.00;;;7.80;;
59416;SDS011;45222;52.458;20.914;2023-04-23T20:06:09;13.20;;;8.60;;
59416;SDS011;45222;52.458;20.914;2023-04-23T20:09:56;12.50;;;8.10;;
59416;SDS011;45222;52.458;20.914;2023-04-23T20:13:45;12.90;;;8.50;;
59416;SDS011;45222;52.458;20.914;2023-04-23T20:17:32;11.40;;;7.90;;
59416;SDS011;45222;52.458;20.914;2023-04-23T20:21:20;13.30;;;8.20;;
59416;SDS011;45222;52.458;20.914;2023-04-23T20:25:09;15.30;;;8.80;;
59416;SDS011;45222;52.458;20.914;2023-04-23T20:28:57;13.60;;;9.40;;
59416;SDS011;45222;52.458;20.914;2023-04-23T20:32:45;13.40;;;9.50;;
59416;SDS011;45222;52.458;20.914;2023-04-23T20:36:33;14.50;;;8.80;;
59416;SDS011;45222;52.458;20.914;2023-04-23T20:40:23;15.20;;;8.60;;
59416;SDS011;45222;52.458;20.914;2023-04-23T20:44:12;14.20;;;8.60;;
59416;SDS011;45222;52.458;20.914;2023-04-23T20:48:00;15.40;;;9.80;;
59416;SDS011;45222;52.458;20.914;2023-04-23T20:55:35;15.70;;;9.50;;
59416;SDS011;45222;52.458;20.914;2023-04-23T20:59:23;15.10;;;9.50;;
59416;SDS011;45222;52.458;20.914;2023-04-23T21:03:11;12.00;;;8.70;;
59416;SDS011;45222;52.458;20.914;2023-04-23T21:06:59;12.60;;;9.00;;
59416;SDS011;45222;52.458;20.914;2023-04-23T21:10:47;13.50;;;9.40;;
59416;SDS011;45222;52.458;20.914;2023-04-23T21:14:35;14.70;;;9.30;;
59416;SDS011;45222;52.458;20.914;2023-04-23T21:18:23;14.00;;;8.70;;
59416;SDS011;45222;52.458;20.914;2023-04-23T21:22:11;13.90;;;8.90;;
59416;SDS011;45222;52.458;20.914;2023-04-23T21:25:59;15.00;;;9.20;;
59416;SDS011;45222;52.458;20.914;2023-04-23T21:29:47;12.40;;;8.40;;
59416;SDS011;45222;52.458;20.914;2023-04-23T21:33:35;14.90;;;8.60;;
59416;SDS011;45222;52.458;20.914;2023-04-23T21:37:23;14.70;;;9.40;;
59416;SDS011;45222;52.458;20.914;2023-04-23T21:41:11;14.80;;;9.00;;
59416;SDS011;45222;52.458;20.914;2023-04-23T21:44:59;18.10;;;9.20;;
59416;SDS011;45222;52.458;20.914;2023-04-23T21:48:48;12.70;;;9.30;;
59416;SDS011;45222;52.458;20.914;2023-04-23T21:52:37;18.50;;;8.90;;
59416;SDS011;45222;52.458;20.914;2023-04-23T21:56:26;14.80;;;8.50;;
59416;SDS011;45222;52.458;20.914;2023-04-23T22:00:15;12.70;;;8.90;;
59416;SDS011;45222;52.458;20.914;2023-04-23T22:04:04;14.90;;;9.50;;
59416;SDS011;45222;52.458;20.914;2023-04-23T22:07:52;13.70;;;8.70;;
59416;SDS011;45222;52.458;20.914;2023-04-23T22:11:40;15.70;;;9.00;;
59416;SDS011;45222;52.458;20.914;2023-04-23T22:19:15;15.00;;;9.10;;
59416;SDS011;45222;52.458;20.914;2023-04-23T22:23:03;14.50;;;9.10;;
59416;SDS011;45222;52.458;20.914;2023-04-23T22:26:51;16.40;;;9.20;;
59416;SDS011;45222;52.458;20.914;2023-04-23T22:30:39;15.30;;;9.50;;
59416;SDS011;45222;52.458;20.914;2023-04-23T22:34:27;13.60;;;9.20;;
59416;SDS011;45222;52.458;20.914;2023-04-23T22:38:15;15.30;;;9.10;;
59416;SDS011;45222;52.458;20.914;2023-04-23T22:42:03;13.90;;;9.20;;
59416;SDS011;45222;52.458;20.914;2023-04-23T22:45:50;16.20;;;9.70;;
59416;SDS011;45222;52.458;20.914;2023-04-23T22:49:38;15.40;;;9.30;;
59416;SDS011;45222;52.458;20.914;2023-04-23T22:53:26;13.80;;;9.80;;
59416;SDS011;45222;52.458;20.914;2023-04-23T22:57:14;15.50;;;9.30;;
59416;SDS011;45222;52.458;20.914;2023-04-23T23:01:02;13.20;;;9.90;;
59416;SDS011;45222;52.458;20.914;2023-04-23T23:04:50;13.60;;;8.90;;
59416;SDS011;45222;52.458;20.914;2023-04-23T23:08:38;13.20;;;10.10;;
59416;SDS011;45222;52.458;20.914;2023-04-23T23:12:26;14.00;;;9.70;;
59416;SDS011;45222;52.458;20.914;2023-04-23T23:16:14;13.60;;;9.40;;
59416;SDS011;45222;52.458;20.914;2023-04-23T23:20:02;15.10;;;10.10;;
59416;SDS011;45222;52.458;20.914;2023-04-23T23:23:52;15.40;;;9.50;;
59416;SDS011;45222;52.458;20.914;2023-04-23T23:27:40;13.70;;;9.60;;
59416;SDS011;45222;52.458;20.914;2023-04-23T23:31:28;13.80;;;9.80;;
59416;SDS011;45222;52.458;20.914;2023-04-23T23:35:16;15.40;;;10.10;;
59416;SDS011;45222;52.458;20.914;2023-04-23T23:39:04;15.00;;;9.70;;
59416;SDS011;45222;52.458;20.914;2023-04-23T23:42:52;14.90;;;10.40;;
59416;SDS011;45222;52.458;20.914;2023-04-23T23:46:40;15.60;;;10.50;;
59416;SDS011;45222;52.458;20.914;2023-04-23T23:50:28;15.10;;;10.30;;
59416;SDS011;45222;52.458;20.914;2023-04-23T23:54:16;17.30;;;10.30;;
59416;SDS011;45222;52.458;20.914;2023-04-23T23:58:03;13.00;;;9.90;;
